sensor_id;sensor_type;location;lat;lon;timestamp;P1;durP1;ratioP1;P2;durP2;ratioP2
59960;SDS011;55902;-37.980;-63.602;2022-11-23T00:00:47;1.58;;;0.80;;
59960;SDS011;55902;-37.980;-63.602;2022-11-23T00:03:14;3.75;;;0.85;;
59960;SDS011;55902;-37.980;-63.602;2022-11-23T00:05:41;4.63;;;0.90;;
59960;SDS011;55902;-37.980;-63.602;2022-11-23T00:08:08;4.93;;;1.00;;
59960;SDS011;55902;-37.980;-63.602;2022-11-23T00:10:35;5.50;;;0.98;;
59960;SDS011;55902;-37.980;-63.602;2022-11-23T00:13:02;4.60;;;0.80;;
59960;SDS011;55902;-37.980;-63.602;2022-11-23T00:15:28;5.22;;;1.02;;
59960;SDS011;55902;-37.980;-63.602;2022-11-23T00:17:57;3.70;;;0.82;;
59960;SDS011;55902;-37.980;-63.602;2022-11-23T00:20:27;2.78;;;0.75;;
59960;SDS011;55902;-37.980;-63.602;2022-11-23T00:22:54;3.30;;;0.85;;
59960;SDS011;55902;-37.980;-63.602;2022-11-23T00:25:20;3.65;;;0.90;;
59960;SDS011;55902;-37.980;-63.602;2022-11-23T00:27:47;6.53;;;1.25;;
59960;SDS011;55902;-37.980;-63.602;2022-11-23T00:30:14;9.00;;;1.10;;
59960;SDS011;55902;-37.980;-63.602;2022-11-23T00:32:41;3.10;;;0.90;;
59960;SDS011;55902;-37.980;-63.602;2022-11-23T00:35:08;3.45;;;0.80;;
59960;SDS011;55902;-37.980;-63.602;2022-11-23T00:37:37;3.72;;;0.90;;
59960;SDS011;55902;-37.980;-63.602;2022-11-23T00:40:04;5.10;;;0.85;;
59960;SDS011;55902;-37.980;-63.602;2022-11-23T00:42:31;6.15;;;1.00;;
59960;SDS011;55902;-37.980;-63.602;2022-11-23T00:44:58;6.18;;;1.00;;
59960;SDS011;55902;-37.980;-63.602;2022-11-23T00:47:25;2.90;;;0.80;;
59960;SDS011;55902;-37.980;-63.602;2022-11-23T00:49:52;3.60;;;1.00;;
59960;SDS011;55902;-37.980;-63.602;2022-11-23T00:52:19;2.13;;;0.90;;
59960;SDS011;55902;-37.980;-63.602;2022-11-23T00:54:46;2.33;;;0.90;;
59960;SDS011;55902;-37.980;-63.602;2022-11-23T00:57:13;6.10;;;1.08;;
59960;SDS011;55902;-37.980;-63.602;2022-11-23T00:59:40;6.13;;;1.00;;
59960;SDS011;55902;-37.980;-63.602;2022-11-23T01:02:07;4.45;;;1.08;;
59960;SDS011;55902;-37.980;-63.602;2022-11-23T01:04:34;3.70;;;1.10;;
59960;SDS011;55902;-37.980;-63.602;2022-11-23T01:07:03;4.25;;;1.08;;
59960;SDS011;55902;-37.980;-63.602;2022-11-23T01:09:30;3.60;;;0.88;;
59960;SDS011;55902;-37.980;-63.602;2022-11-23T01:11:57;4.15;;;1.05;;
59960;SDS011;55902;-37.980;-63.602;2022-11-23T01:14:24;5.53;;;1.10;;
59960;SDS011;55902;-37.980;-63.602;2022-11-23T01:16:51;4.03;;;1.02;;
59960;SDS011;55902;-37.980;-63.602;2022-11-23T01:19:18;4.45;;;0.98;;
59960;SDS011;55902;-37.980;-63.602;2022-11-23T01:21:46;6.28;;;0.98;;
59960;SDS011;55902;-37.980;-63.602;2022-11-23T01:24:17;6.20;;;0.90;;
59960;SDS011;55902;-37.980;-63.602;2022-11-23T01:26:49;5.53;;;0.93;;
59960;SDS011;55902;-37.980;-63.602;2022-11-23T01:29:17;5.38;;;0.80;;
59960;SDS011;55902;-37.980;-63.602;2022-11-23T01:31:44;4.07;;;0.90;;
59960;SDS011;55902;-37.980;-63.602;2022-11-23T01:34:11;6.25;;;1.13;;
59960;SDS011;55902;-37.980;-63.602;2022-11-23T01:36:39;5.95;;;1.40;;
59960;SDS011;55902;-37.980;-63.602;2022-11-23T01:39:07;6.22;;;1.00;;
59960;SDS011;55902;-37.980;-63.602;2022-11-23T01:45:25;3.58;;;1.00;;
59960;SDS011;55902;-37.980;-63.602;2022-11-23T01:47:58;6.40;;;0.90;;
59960;SDS011;55902;-37.980;-63.602;2022-11-23T01:50:25;5.55;;;0.90;;
59960;SDS011;55902;-37.980;-63.602;2022-11-23T01:52:52;3.50;;;1.17;;
59960;SDS011;55902;-37.980;-63.602;2022-11-23T01:55:19;6.18;;;1.00;;
59960;SDS011;55902;-37.980;-63.602;2022-11-23T01:57:46;3.00;;;0.95;;
59960;SDS011;55902;-37.980;-63.602;2022-11-23T02:00:14;8.68;;;1.20;;
59960;SDS011;55902;-37.980;-63.602;2022-11-23T02:02:43;4.45;;;0.90;;
59960;SDS011;55902;-37.980;-63.602;2022-11-23T02:05:15;5.78;;;0.93;;
59960;SDS011;55902;-37.980;-63.602;2022-11-23T02:07:47;2.78;;;0.90;;
59960;SDS011;55902;-37.980;-63.602;2022-11-23T02:10:15;2.88;;;0.85;;
59960;SDS011;55902;-37.980;-63.602;2022-11-23T02:12:42;2.35;;;0.85;;
59960;SDS011;55902;-37.980;-63.602;2022-11-23T02:15:09;3.20;;;1.10;;
59960;SDS011;55902;-37.980;-63.602;2022-11-23T02:17:36;3.15;;;0.90;;
59960;SDS011;55902;-37.980;-63.602;2022-11-23T02:20:07;2.63;;;0.93;;
59960;SDS011;55902;-37.980;-63.602;2022-11-23T02:25:12;2.80;;;0.98;;
59960;SDS011;55902;-37.980;-63.602;2022-11-23T02:27:59;3.38;;;1.02;;
59960;SDS011;55902;-37.980;-63.602;2022-11-23T02:30:27;3.80;;;1.00;;
59960;SDS011;55902;-37.980;-63.602;2022-11-23T02:32:56;3.90;;;1.00;;
59960;SDS011;55902;-37.980;-63.602;2022-11-23T02:35:23;2.67;;;0.98;;
59960;SDS011;55902;-37.980;-63.602;2022-11-23T02:37:50;5.50;;;0.80;;
59960;SDS011;55902;-37.980;-63.602;2022-11-23T02:40:26;3.47;;;0.80;;
59960;SDS011;55902;-37.980;-63.602;2022-11-23T02:42:58;3.83;;;0.90;;
59960;SDS011;55902;-37.980;-63.602;2022-11-23T02:45:39;4.40;;;0.90;;
59960;SDS011;55902;-37.980;-63.602;2022-11-23T02:48:08;3.72;;;0.95;;
59960;SDS011;55902;-37.980;-63.602;2022-11-23T02:50:35;3.95;;;1.00;;
59960;SDS011;55902;-37.980;-63.602;2022-11-23T02:53:02;3.05;;;0.90;;
59960;SDS011;55902;-37.980;-63.602;2022-11-23T02:55:29;5.75;;;1.00;;
59960;SDS011;55902;-37.980;-63.602;2022-11-23T02:57:56;2.45;;;0.80;;
59960;SDS011;55902;-37.980;-63.602;2022-11-23T03:00:23;2.08;;;0.80;;
59960;SDS011;55902;-37.980;-63.602;2022-11-23T03:02:50;3.88;;;0.93;;
59960;SDS011;55902;-37.980;-63.602;2022-11-23T03:05:17;6.90;;;1.05;;
59960;SDS011;55902;-37.980;-63.602;2022-11-23T03:07:44;2.78;;;0.80;;
59960;SDS011;55902;-37.980;-63.602;2022-11-23T03:10:10;2.80;;;0.93;;
59960;SDS011;55902;-37.980;-63.602;2022-11-23T03:12:38;1.92;;;0.80;;
59960;SDS011;55902;-37.980;-63.602;2022-11-23T03:15:05;2.30;;;0.90;;
59960;SDS011;55902;-37.980;-63.602;2022-11-23T03:17:32;3.72;;;1.00;;
59960;SDS011;55902;-37.980;-63.602;2022-11-23T03:19:59;2.90;;;0.90;;
59960;SDS011;55902;-37.980;-63.602;2022-11-23T03:22:26;4.90;;;0.95;;
59960;SDS011;55902;-37.980;-63.602;2022-11-23T03:24:53;6.90;;;1.00;;
59960;SDS011;55902;-37.980;-63.602;2022-11-23T03:27:22;7.85;;;1.30;;
59960;SDS011;55902;-37.980;-63.602;2022-11-23T03:29:49;4.57;;;0.90;;
59960;SDS011;55902;-37.980;-63.602;2022-11-23T03:32:16;3.00;;;1.00;;
59960;SDS011;55902;-37.980;-63.602;2022-11-23T03:34:43;3.72;;;0.90;;
59960;SDS011;55902;-37.980;-63.602;2022-11-23T03:37:09;3.13;;;1.15;;
59960;SDS011;55902;-37.980;-63.602;2022-11-23T03:39:36;2.85;;;1.00;;
59960;SDS011;55902;-37.980;-63.602;2022-11-23T03:42:03;2.00;;;0.90;;
59960;SDS011;55902;-37.980;-63.602;2022-11-23T03:44:30;5.35;;;1.23;;
59960;SDS011;55902;-37.980;-63.602;2022-11-23T03:46:57;5.03;;;1.13;;
59960;SDS011;55902;-37.980;-63.602;2022-11-23T03:49:24;42.22;;;3.65;;
59960;SDS011;55902;-37.980;-63.602;2022-11-23T03:51:51;3.28;;;1.00;;
59960;SDS011;55902;-37.980;-63.602;2022-11-23T03:54:18;2.00;;;0.90;;
59960;SDS011;55902;-37.980;-63.602;2022-11-23T03:56:45;3.92;;;1.10;;
59960;SDS011;55902;-37.980;-63.602;2022-11-23T03:59:12;3.72;;;0.90;;
59960;SDS011;55902;-37.980;-63.602;2022-11-23T04:01:38;2.40;;;1.00;;
59960;SDS011;55902;-37.980;-63.602;2022-11-23T04:04:05;2.97;;;0.90;;
59960;SDS011;55902;-37.980;-63.602;2022-11-23T04:06:35;3.47;;;1.00;;
59960;SDS011;55902;-37.980;-63.602;2022-11-23T04:09:02;2.25;;;1.23;;
59960;SDS011;55902;-37.980;-63.602;2022-11-23T04:11:29;3.25;;;0.90;;
59960;SDS011;55902;-37.980;-63.602;2022-11-23T04:13:56;3.30;;;1.10;;
59960;SDS011;55902;-37.980;-63.602;2022-11-23T04:16:23;4.45;;;0.90;;
59960;SDS011;55902;-37.980;-63.602;2022-11-23T04:18:50;3.67;;;1.00;;
59960;SDS011;55902;-37.980;-63.602;2022-11-23T04:21:17;2.17;;;0.90;;
59960;SDS011;55902;-37.980;-63.602;2022-11-23T04:23:44;2.40;;;0.90;;
59960;SDS011;55902;-37.980;-63.602;2022-11-23T04:26:11;4.88;;;0.98;;
59960;SDS011;55902;-37.980;-63.602;2022-11-23T04:28:37;2.38;;;1.10;;
59960;SDS011;55902;-37.980;-63.602;2022-11-23T04:31:04;2.25;;;1.00;;
59960;SDS011;55902;-37.980;-63.602;2022-11-23T04:33:31;5.53;;;1.10;;
59960;SDS011;55902;-37.980;-63.602;2022-11-23T04:35:58;2.33;;;0.90;;
59960;SDS011;55902;-37.980;-63.602;2022-11-23T04:38:25;3.42;;;0.95;;
59960;SDS011;55902;-37.980;-63.602;2022-11-23T04:40:52;4.90;;;1.00;;
59960;SDS011;55902;-37.980;-63.602;2022-11-23T04:43:19;2.58;;;1.00;;
59960;SDS011;55902;-37.980;-63.602;2022-11-23T04:45:46;2.88;;;0.90;;
59960;SDS011;55902;-37.980;-63.602;2022-11-23T04:48:13;2.70;;;0.95;;
59960;SDS011;55902;-37.980;-63.602;2022-11-23T04:50:39;1.65;;;0.90;;
59960;SDS011;55902;-37.980;-63.602;2022-11-23T04:53:07;6.53;;;1.30;;
59960;SDS011;55902;-37.980;-63.602;2022-11-23T04:55:34;4.35;;;1.10;;
59960;SDS011;55902;-37.980;-63.602;2022-11-23T05:01:22;5.50;;;1.70;;
59960;SDS011;55902;-37.980;-63.602;2022-11-23T05:03:49;3.58;;;1.10;;
59960;SDS011;55902;-37.980;-63.602;2022-11-23T05:06:16;1.73;;;0.93;;
59960;SDS011;55902;-37.980;-63.602;2022-11-23T05:08:44;2.03;;;1.00;;
59960;SDS011;55902;-37.980;-63.602;2022-11-23T05:11:11;2.85;;;1.08;;
59960;SDS011;55902;-37.980;-63.602;2022-11-23T05:13:38;4.05;;;1.10;;
59960;SDS011;55902;-37.980;-63.602;2022-11-23T05:20:10;3.47;;;1.20;;
59960;SDS011;55902;-37.980;-63.602;2022-11-23T05:22:37;4.80;;;0.95;;
59960;SDS011;55902;-37.980;-63.602;2022-11-23T05:25:05;3.30;;;1.10;;
59960;SDS011;55902;-37.980;-63.602;2022-11-23T05:27:33;4.30;;;1.10;;
59960;SDS011;55902;-37.980;-63.602;2022-11-23T05:30:00;3.97;;;0.90;;
59960;SDS011;55902;-37.980;-63.602;2022-11-23T05:32:27;3.47;;;1.10;;
59960;SDS011;55902;-37.980;-63.602;2022-11-23T05:34:54;2.65;;;1.00;;
59960;SDS011;55902;-37.980;-63.602;2022-11-23T05:37:21;1.75;;;1.00;;
59960;SDS011;55902;-37.980;-63.602;2022-11-23T05:39:48;4.68;;;1.10;;
59960;SDS011;55902;-37.980;-63.602;2022-11-23T05:42:15;3.40;;;1.20;;
59960;SDS011;55902;-37.980;-63.602;2022-11-23T05:44:42;2.17;;;0.90;;
59960;SDS011;55902;-37.980;-63.602;2022-11-23T05:47:08;2.05;;;0.90;;
59960;SDS011;55902;-37.980;-63.602;2022-11-23T05:49:35;2.00;;;1.10;;
59960;SDS011;55902;-37.980;-63.602;2022-11-23T05:52:02;2.75;;;1.00;;
59960;SDS011;55902;-37.980;-63.602;2022-11-23T05:54:30;5.03;;;1.10;;
59960;SDS011;55902;-37.980;-63.602;2022-11-23T05:56:57;2.13;;;1.00;;
59960;SDS011;55902;-37.980;-63.602;2022-11-23T05:59:24;2.15;;;1.10;;
59960;SDS011;55902;-37.980;-63.602;2022-11-23T06:01:51;4.00;;;1.00;;
59960;SDS011;55902;-37.980;-63.602;2022-11-23T06:04:17;3.05;;;1.02;;
59960;SDS011;55902;-37.980;-63.602;2022-11-23T06:06:44;4.10;;;1.20;;
59960;SDS011;55902;-37.980;-63.602;2022-11-23T06:09:13;3.50;;;1.00;;
59960;SDS011;55902;-37.980;-63.602;2022-11-23T06:11:39;5.53;;;1.10;;
59960;SDS011;55902;-37.980;-63.602;2022-11-23T06:14:09;2.22;;;1.00;;
59960;SDS011;55902;-37.980;-63.602;2022-11-23T06:16:36;3.63;;;1.00;;
59960;SDS011;55902;-37.980;-63.602;2022-11-23T06:19:03;5.05;;;1.10;;
59960;SDS011;55902;-37.980;-63.602;2022-11-23T06:21:30;2.58;;;0.90;;
59960;SDS011;55902;-37.980;-63.602;2022-11-23T06:23:57;4.20;;;1.30;;
59960;SDS011;55902;-37.980;-63.602;2022-11-23T06:26:24;2.92;;;1.02;;
59960;SDS011;55902;-37.980;-63.602;2022-11-23T06:32:14;3.65;;;1.00;;
59960;SDS011;55902;-37.980;-63.602;2022-11-23T06:34:41;1.92;;;1.10;;
59960;SDS011;55902;-37.980;-63.602;2022-11-23T06:37:08;3.38;;;0.90;;
59960;SDS011;55902;-37.980;-63.602;2022-11-23T06:39:36;2.15;;;1.10;;
59960;SDS011;55902;-37.980;-63.602;2022-11-23T06:42:04;1.85;;;1.13;;
59960;SDS011;55902;-37.980;-63.602;2022-11-23T06:44:32;2.40;;;1.10;;
59960;SDS011;55902;-37.980;-63.602;2022-11-23T06:46:59;2.90;;;1.10;;
59960;SDS011;55902;-37.980;-63.602;2022-11-23T06:49:26;2.90;;;1.00;;
59960;SDS011;55902;-37.980;-63.602;2022-11-23T06:51:53;3.65;;;1.52;;
59960;SDS011;55902;-37.980;-63.602;2022-11-23T06:54:20;2.15;;;1.00;;
59960;SDS011;55902;-37.980;-63.602;2022-11-23T06:56:47;2.72;;;1.00;;
59960;SDS011;55902;-37.980;-63.602;2022-11-23T06:59:13;2.15;;;1.10;;
59960;SDS011;55902;-37.980;-63.602;2022-11-23T07:01:40;4.03;;;1.20;;
59960;SDS011;55902;-37.980;-63.602;2022-11-23T07:04:07;3.20;;;1.17;;
59960;SDS011;55902;-37.980;-63.602;2022-11-23T07:06:37;2.75;;;1.10;;
59960;SDS011;55902;-37.980;-63.602;2022-11-23T07:09:06;3.13;;;1.05;;
59960;SDS011;55902;-37.980;-63.602;2022-11-23T07:11:33;3.35;;;1.13;;
59960;SDS011;55902;-37.980;-63.602;2022-11-23T07:14:00;4.82;;;1.20;;
59960;SDS011;55902;-37.980;-63.602;2022-11-23T07:16:27;2.22;;;1.17;;
59960;SDS011;55902;-37.980;-63.602;2022-11-23T07:18:54;2.40;;;1.10;;
59960;SDS011;55902;-37.980;-63.602;2022-11-23T07:21:22;4.68;;;1.02;;
59960;SDS011;55902;-37.980;-63.602;2022-11-23T07:23:49;2.97;;;1.00;;
59960;SDS011;55902;-37.980;-63.602;2022-11-23T07:26:16;2.88;;;1.10;;
59960;SDS011;55902;-37.980;-63.602;2022-11-23T07:28:42;2.58;;;1.00;;
59960;SDS011;55902;-37.980;-63.602;2022-11-23T07:31:09;2.17;;;1.10;;
59960;SDS011;55902;-37.980;-63.602;2022-11-23T07:33:36;2.65;;;1.13;;
59960;SDS011;55902;-37.980;-63.602;2022-11-23T07:36:03;2.80;;;1.00;;
59960;SDS011;55902;-37.980;-63.602;2022-11-23T07:38:31;2.35;;;1.00;;
59960;SDS011;55902;-37.980;-63.602;2022-11-23T07:44:19;2.13;;;1.05;;
59960;SDS011;55902;-37.980;-63.602;2022-11-23T07:46:46;4.75;;;1.33;;
59960;SDS011;55902;-37.980;-63.602;2022-11-23T07:49:13;2.03;;;0.90;;
59960;SDS011;55902;-37.980;-63.602;2022-11-23T07:51:40;2.05;;;1.10;;
59960;SDS011;55902;-37.980;-63.602;2022-11-23T07:54:07;2.65;;;1.20;;
59960;SDS011;55902;-37.980;-63.602;2022-11-23T07:56:34;2.88;;;1.00;;
59960;SDS011;55902;-37.980;-63.602;2022-11-23T07:59:01;2.95;;;1.42;;
59960;SDS011;55902;-37.980;-63.602;2022-11-23T08:01:28;3.72;;;1.30;;
59960;SDS011;55902;-37.980;-63.602;2022-11-23T08:03:56;4.40;;;1.20;;
59960;SDS011;55902;-37.980;-63.602;2022-11-23T08:06:22;4.00;;;1.20;;
59960;SDS011;55902;-37.980;-63.602;2022-11-23T08:08:49;1.77;;;1.00;;
59960;SDS011;55902;-37.980;-63.602;2022-11-23T08:11:16;3.08;;;1.15;;
59960;SDS011;55902;-37.980;-63.602;2022-11-23T08:13:45;3.53;;;1.20;;
59960;SDS011;55902;-37.980;-63.602;2022-11-23T08:16:12;3.15;;;1.10;;
59960;SDS011;55902;-37.980;-63.602;2022-11-23T08:18:39;2.85;;;1.10;;
59960;SDS011;55902;-37.980;-63.602;2022-11-23T08:21:08;2.70;;;1.00;;
59960;SDS011;55902;-37.980;-63.602;2022-11-23T08:23:35;3.60;;;1.00;;
59960;SDS011;55902;-37.980;-63.602;2022-11-23T08:26:02;2.13;;;1.00;;
59960;SDS011;55902;-37.980;-63.602;2022-11-23T08:28:29;3.92;;;1.05;;
59960;SDS011;55902;-37.980;-63.602;2022-11-23T08:30:56;3.53;;;1.10;;
59960;SDS011;55902;-37.980;-63.602;2022-11-23T08:33:23;4.70;;;1.10;;
59960;SDS011;55902;-37.980;-63.602;2022-11-23T08:35:52;2.67;;;1.00;;
59960;SDS011;55902;-37.980;-63.602;2022-11-23T08:38:19;3.15;;;1.13;;
59960;SDS011;55902;-37.980;-63.602;2022-11-23T08:40:46;2.63;;;1.10;;
59960;SDS011;55902;-37.980;-63.602;2022-11-23T08:43:13;3.20;;;1.10;;
59960;SDS011;55902;-37.980;-63.602;2022-11-23T08:45:40;2.63;;;0.90;;
59960;SDS011;55902;-37.980;-63.602;2022-11-23T08:48:08;4.82;;;1.15;;
59960;SDS011;55902;-37.980;-63.602;2022-11-23T08:50:35;2.67;;;1.13;;
59960;SDS011;55902;-37.980;-63.602;2022-11-23T08:53:02;3.88;;;1.05;;
59960;SDS011;55902;-37.980;-63.602;2022-11-23T08:55:30;3.90;;;1.10;;
59960;SDS011;55902;-37.980;-63.602;2022-11-23T08:57:57;4.47;;;1.10;;
59960;SDS011;55902;-37.980;-63.602;2022-11-23T09:00:25;3.38;;;1.10;;
59960;SDS011;55902;-37.980;-63.602;2022-11-23T09:02:53;3.70;;;1.02;;
59960;SDS011;55902;-37.980;-63.602;2022-11-23T09:05:23;3.75;;;1.08;;
59960;SDS011;55902;-37.980;-63.602;2022-11-23T09:07:50;2.38;;;1.20;;
59960;SDS011;55902;-37.980;-63.602;2022-11-23T09:10:17;3.63;;;1.15;;
59960;SDS011;55902;-37.980;-63.602;2022-11-23T09:12:45;1.90;;;1.10;;
59960;SDS011;55902;-37.980;-63.602;2022-11-23T09:15:12;4.70;;;1.10;;
59960;SDS011;55902;-37.980;-63.602;2022-11-23T09:17:39;2.20;;;1.10;;
59960;SDS011;55902;-37.980;-63.602;2022-11-23T09:20:07;2.45;;;1.10;;
59960;SDS011;55902;-37.980;-63.602;2022-11-23T09:22:34;2.83;;;1.00;;
59960;SDS011;55902;-37.980;-63.602;2022-11-23T09:25:02;3.22;;;1.20;;
59960;SDS011;55902;-37.980;-63.602;2022-11-23T09:27:29;4.07;;;1.20;;
59960;SDS011;55902;-37.980;-63.602;2022-11-23T09:29:56;2.25;;;1.10;;
59960;SDS011;55902;-37.980;-63.602;2022-11-23T09:32:23;1.90;;;1.00;;
59960;SDS011;55902;-37.980;-63.602;2022-11-23T09:34:51;3.05;;;1.10;;
59960;SDS011;55902;-37.980;-63.602;2022-11-23T09:37:18;1.80;;;1.00;;
59960;SDS011;55902;-37.980;-63.602;2022-11-23T09:39:44;4.60;;;1.30;;
59960;SDS011;55902;-37.980;-63.602;2022-11-23T09:42:29;2.28;;;1.25;;
59960;SDS011;55902;-37.980;-63.602;2022-11-23T09:56:18;3.50;;;1.20;;
59960;SDS011;55902;-37.980;-63.602;2022-11-23T09:58:53;2.92;;;1.15;;
59960;SDS011;55902;-37.980;-63.602;2022-11-23T10:01:22;3.30;;;1.00;;
59960;SDS011;55902;-37.980;-63.602;2022-11-23T10:03:52;2.80;;;1.00;;
59960;SDS011;55902;-37.980;-63.602;2022-11-23T10:06:23;3.00;;;1.13;;
59960;SDS011;55902;-37.980;-63.602;2022-11-23T10:22:57;3.55;;;1.27;;
59960;SDS011;55902;-37.980;-63.602;2022-11-23T10:25:28;6.40;;;1.27;;
59960;SDS011;55902;-37.980;-63.602;2022-11-23T10:28:18;33.60;;;2.75;;
59960;SDS011;55902;-37.980;-63.602;2022-11-23T10:31:00;6.28;;;1.30;;
59960;SDS011;55902;-37.980;-63.602;2022-11-23T10:34:10;6.15;;;1.40;;
59960;SDS011;55902;-37.980;-63.602;2022-11-23T10:36:43;5.78;;;1.25;;
59960;SDS011;55902;-37.980;-63.602;2022-11-23T10:39:26;40.47;;;2.73;;
59960;SDS011;55902;-37.980;-63.602;2022-11-23T10:41:58;34.10;;;3.45;;
59960;SDS011;55902;-37.980;-63.602;2022-11-23T10:44:29;31.88;;;2.85;;
59960;SDS011;55902;-37.980;-63.602;2022-11-23T10:47:03;6.57;;;1.10;;
59960;SDS011;55902;-37.980;-63.602;2022-11-23T10:49:33;8.90;;;1.20;;
59960;SDS011;55902;-37.980;-63.602;2022-11-23T11:02:13;4.43;;;1.00;;
59960;SDS011;55902;-37.980;-63.602;2022-11-23T11:04:44;3.13;;;0.90;;
59960;SDS011;55902;-37.980;-63.602;2022-11-23T11:07:20;8.13;;;1.30;;
59960;SDS011;55902;-37.980;-63.602;2022-11-23T11:12:24;5.47;;;0.95;;
59960;SDS011;55902;-37.980;-63.602;2022-11-23T11:17:31;2.55;;;1.10;;
59960;SDS011;55902;-37.980;-63.602;2022-11-23T11:19:59;3.90;;;1.08;;
59960;SDS011;55902;-37.980;-63.602;2022-11-23T11:22:46;2.15;;;0.90;;
59960;SDS011;55902;-37.980;-63.602;2022-11-23T11:25:27;4.35;;;0.80;;
59960;SDS011;55902;-37.980;-63.602;2022-11-23T11:28:03;1.77;;;0.77;;
59960;SDS011;55902;-37.980;-63.602;2022-11-23T11:30:55;3.25;;;0.80;;
59960;SDS011;55902;-37.980;-63.602;2022-11-23T11:33:41;4.45;;;0.90;;
59960;SDS011;55902;-37.980;-63.602;2022-11-23T11:36:18;4.03;;;0.70;;
59960;SDS011;55902;-37.980;-63.602;2022-11-23T11:38:50;2.15;;;0.80;;
59960;SDS011;55902;-37.980;-63.602;2022-11-23T11:41:20;2.92;;;0.80;;
59960;SDS011;55902;-37.980;-63.602;2022-11-23T11:44:08;2.03;;;0.68;;
59960;SDS011;55902;-37.980;-63.602;2022-11-23T11:46:46;1.88;;;0.90;;
59960;SDS011;55902;-37.980;-63.602;2022-11-23T11:49:44;3.38;;;0.80;;
59960;SDS011;55902;-37.980;-63.602;2022-11-23T11:52:17;4.28;;;0.70;;
59960;SDS011;55902;-37.980;-63.602;2022-11-23T12:00:28;4.38;;;0.82;;
59960;SDS011;55902;-37.980;-63.602;2022-11-23T12:05:48;5.70;;;1.95;;
59960;SDS011;55902;-37.980;-63.602;2022-11-23T12:11:00;3.83;;;0.60;;
59960;SDS011;55902;-37.980;-63.602;2022-11-23T12:13:33;6.25;;;0.70;;
59960;SDS011;55902;-37.980;-63.602;2022-11-23T12:29:44;3.45;;;0.50;;
59960;SDS011;55902;-37.980;-63.602;2022-11-23T12:35:26;3.10;;;0.70;;
59960;SDS011;55902;-37.980;-63.602;2022-11-23T12:40:47;5.57;;;1.00;;
59960;SDS011;55902;-37.980;-63.602;2022-11-23T12:43:29;3.28;;;0.55;;
59960;SDS011;55902;-37.980;-63.602;2022-11-23T12:46:18;4.05;;;0.60;;
59960;SDS011;55902;-37.980;-63.602;2022-11-23T12:51:44;2.58;;;0.55;;
59960;SDS011;55902;-37.980;-63.602;2022-11-23T12:57:26;3.25;;;0.60;;
59960;SDS011;55902;-37.980;-63.602;2022-11-23T13:00:05;4.82;;;0.52;;
59960;SDS011;55902;-37.980;-63.602;2022-11-23T13:07:52;6.18;;;1.08;;
59960;SDS011;55902;-37.980;-63.602;2022-11-23T13:13:14;4.13;;;0.82;;
59960;SDS011;55902;-37.980;-63.602;2022-11-23T13:18:55;4.05;;;0.70;;
59960;SDS011;55902;-37.980;-63.602;2022-11-23T13:21:42;1.60;;;0.50;;
59960;SDS011;55902;-37.980;-63.602;2022-11-23T13:29:53;3.42;;;0.70;;
59960;SDS011;55902;-37.980;-63.602;2022-11-23T13:45:46;10.05;;;0.90;;
59960;SDS011;55902;-37.980;-63.602;2022-11-23T13:48:43;1.85;;;0.50;;
59960;SDS011;55902;-37.980;-63.602;2022-11-23T13:51:22;1.70;;;0.50;;
59960;SDS011;55902;-37.980;-63.602;2022-11-23T13:57:00;3.40;;;0.60;;
59960;SDS011;55902;-37.980;-63.602;2022-11-23T13:59:31;3.50;;;0.70;;
59960;SDS011;55902;-37.980;-63.602;2022-11-23T14:02:21;2.15;;;0.55;;
59960;SDS011;55902;-37.980;-63.602;2022-11-23T14:05:27;1.92;;;0.60;;
59960;SDS011;55902;-37.980;-63.602;2022-11-23T14:07:56;3.20;;;0.40;;
59960;SDS011;55902;-37.980;-63.602;2022-11-23T14:10:29;2.77;;;0.50;;
59960;SDS011;55902;-37.980;-63.602;2022-11-23T14:13:31;1.52;;;0.45;;
59960;SDS011;55902;-37.980;-63.602;2022-11-23T14:15:54;3.50;;;0.50;;
59960;SDS011;55902;-37.980;-63.602;2022-11-23T14:30:12;1.52;;;0.50;;
59960;SDS011;55902;-37.980;-63.602;2022-11-23T14:32:43;1.60;;;0.40;;
59960;SDS011;55902;-37.980;-63.602;2022-11-23T14:41:16;1.50;;;0.45;;
59960;SDS011;55902;-37.980;-63.602;2022-11-23T14:43:46;0.85;;;0.40;;
59960;SDS011;55902;-37.980;-63.602;2022-11-23T14:46:15;3.42;;;0.50;;
59960;SDS011;55902;-37.980;-63.602;2022-11-23T14:48:44;4.15;;;0.60;;
59960;SDS011;55902;-37.980;-63.602;2022-11-23T14:51:22;2.17;;;0.50;;
59960;SDS011;55902;-37.980;-63.602;2022-11-23T14:53:54;1.25;;;0.40;;
59960;SDS011;55902;-37.980;-63.602;2022-11-23T14:56:30;2.42;;;0.35;;
59960;SDS011;55902;-37.980;-63.602;2022-11-23T14:59:08;2.50;;;0.90;;
59960;SDS011;55902;-37.980;-63.602;2022-11-23T15:01:49;2.42;;;0.50;;
59960;SDS011;55902;-37.980;-63.602;2022-11-23T15:04:28;1.23;;;0.40;;
59960;SDS011;55902;-37.980;-63.602;2022-11-23T15:07:03;3.95;;;0.60;;
59960;SDS011;55902;-37.980;-63.602;2022-11-23T15:12:27;1.17;;;0.40;;
59960;SDS011;55902;-37.980;-63.602;2022-11-23T15:15:19;2.60;;;0.45;;
59960;SDS011;55902;-37.980;-63.602;2022-11-23T15:18:00;2.67;;;0.50;;
59960;SDS011;55902;-37.980;-63.602;2022-11-23T15:20:29;1.33;;;0.40;;
59960;SDS011;55902;-37.980;-63.602;2022-11-23T15:23:01;1.73;;;0.32;;
59960;SDS011;55902;-37.980;-63.602;2022-11-23T15:25:30;1.90;;;0.60;;
59960;SDS011;55902;-37.980;-63.602;2022-11-23T15:28:01;2.03;;;0.70;;
59960;SDS011;55902;-37.980;-63.602;2022-11-23T15:30:29;3.85;;;0.60;;
59960;SDS011;55902;-37.980;-63.602;2022-11-23T15:32:57;4.50;;;0.75;;
59960;SDS011;55902;-37.980;-63.602;2022-11-23T15:35:34;7.85;;;0.70;;
59960;SDS011;55902;-37.980;-63.602;2022-11-23T15:38:03;4.47;;;0.50;;
59960;SDS011;55902;-37.980;-63.602;2022-11-23T15:40:36;1.42;;;0.40;;
59960;SDS011;55902;-37.980;-63.602;2022-11-23T15:43:11;1.98;;;0.60;;
59960;SDS011;55902;-37.980;-63.602;2022-11-23T15:48:15;1.27;;;0.30;;
59960;SDS011;55902;-37.980;-63.602;2022-11-23T15:53:26;1.27;;;0.40;;
59960;SDS011;55902;-37.980;-63.602;2022-11-23T15:55:57;1.95;;;0.50;;
59960;SDS011;55902;-37.980;-63.602;2022-11-23T15:58:30;0.70;;;0.30;;
59960;SDS011;55902;-37.980;-63.602;2022-11-23T16:03:46;0.80;;;0.30;;
59960;SDS011;55902;-37.980;-63.602;2022-11-23T16:11:58;1.05;;;0.40;;
59960;SDS011;55902;-37.980;-63.602;2022-11-23T16:14:28;1.00;;;0.35;;
59960;SDS011;55902;-37.980;-63.602;2022-11-23T16:17:18;1.38;;;0.40;;
59960;SDS011;55902;-37.980;-63.602;2022-11-23T16:19:56;1.33;;;0.40;;
59960;SDS011;55902;-37.980;-63.602;2022-11-23T16:22:32;2.42;;;0.43;;
59960;SDS011;55902;-37.980;-63.602;2022-11-23T16:25:23;1.27;;;0.40;;
59960;SDS011;55902;-37.980;-63.602;2022-11-23T16:28:04;2.28;;;0.43;;
59960;SDS011;55902;-37.980;-63.602;2022-11-23T16:30:41;0.63;;;0.32;;
59960;SDS011;55902;-37.980;-63.602;2022-11-23T16:33:16;0.85;;;0.40;;
59960;SDS011;55902;-37.980;-63.602;2022-11-23T16:35:45;0.85;;;0.30;;
59960;SDS011;55902;-37.980;-63.602;2022-11-23T16:38:12;1.15;;;0.40;;
59960;SDS011;55902;-37.980;-63.602;2022-11-23T16:40:40;1.70;;;0.40;;
59960;SDS011;55902;-37.980;-63.602;2022-11-23T16:43:08;1.15;;;0.40;;
59960;SDS011;55902;-37.980;-63.602;2022-11-23T16:45:39;0.82;;;0.45;;
59960;SDS011;55902;-37.980;-63.602;2022-11-23T16:48:34;2.17;;;0.50;;
59960;SDS011;55902;-37.980;-63.602;2022-11-23T16:51:03;1.92;;;0.40;;
59960;SDS011;55902;-37.980;-63.602;2022-11-23T16:53:30;0.98;;;0.40;;
59960;SDS011;55902;-37.980;-63.602;2022-11-23T16:55:59;1.25;;;0.40;;
59960;SDS011;55902;-37.980;-63.602;2022-11-23T16:58:32;1.02;;;0.38;;
59960;SDS011;55902;-37.980;-63.602;2022-11-23T17:01:00;1.73;;;0.40;;
59960;SDS011;55902;-37.980;-63.602;2022-11-23T17:03:28;1.00;;;0.30;;
59960;SDS011;55902;-37.980;-63.602;2022-11-23T17:05:55;1.52;;;0.40;;
59960;SDS011;55902;-37.980;-63.602;2022-11-23T17:08:22;4.88;;;0.65;;
59960;SDS011;55902;-37.980;-63.602;2022-11-23T17:10:49;3.05;;;0.43;;